sensor_id;sensor_type;location;lat;lon;timestamp;P1;durP1;ratioP1;P2;durP2;ratioP2
359;SDS011;168;48.872;9.226;2022-11-20T00:01:11;14.10;;;11.40;;
359;SDS011;168;48.872;9.226;2022-11-20T00:03:40;13.33;;;11.10;;
359;SDS011;168;48.872;9.226;2022-11-20T00:06:09;16.07;;;12.50;;
359;SDS011;168;48.872;9.226;2022-11-20T00:08:38;17.00;;;12.80;;
359;SDS011;168;48.872;9.226;2022-11-20T00:11:06;17.50;;;13.87;;
359;SDS011;168;48.872;9.226;2022-11-20T00:13:34;20.10;;;14.10;;
359;SDS011;168;48.872;9.226;2022-11-20T00:16:03;18.40;;;12.83;;
359;SDS011;168;48.872;9.226;2022-11-20T00:18:33;14.67;;;12.00;;
359;SDS011;168;48.872;9.226;2022-11-20T00:21:01;13.67;;;11.97;;
359;SDS011;168;48.872;9.226;2022-11-20T00:23:29;14.47;;;11.47;;
359;SDS011;168;48.872;9.226;2022-11-20T00:26:00;15.90;;;11.70;;
359;SDS011;168;48.872;9.226;2022-11-20T00:28:29;13.30;;;11.43;;
359;SDS011;168;48.872;9.226;2022-11-20T00:31:00;16.93;;;12.47;;
359;SDS011;168;48.872;9.226;2022-11-20T00:33:29;12.30;;;10.90;;
359;SDS011;168;48.872;9.226;2022-11-20T00:36:00;12.97;;;11.57;;
359;SDS011;168;48.872;9.226;2022-11-20T00:38:29;12.70;;;11.17;;
359;SDS011;168;48.872;9.226;2022-11-20T00:40:57;12.73;;;11.40;;
359;SDS011;168;48.872;9.226;2022-11-20T00:43:24;12.27;;;10.87;;
359;SDS011;168;48.872;9.226;2022-11-20T00:45:56;13.90;;;11.93;;
359;SDS011;168;48.872;9.226;2022-11-20T00:48:24;14.00;;;12.47;;
359;SDS011;168;48.872;9.226;2022-11-20T00:50:52;12.80;;;11.50;;
359;SDS011;168;48.872;9.226;2022-11-20T00:53:21;13.67;;;11.80;;
359;SDS011;168;48.872;9.226;2022-11-20T00:55:52;13.50;;;11.07;;
359;SDS011;168;48.872;9.226;2022-11-20T00:58:21;15.70;;;12.13;;
359;SDS011;168;48.872;9.226;2022-11-20T01:00:48;19.13;;;12.37;;
359;SDS011;168;48.872;9.226;2022-11-20T01:03:16;19.07;;;11.90;;
359;SDS011;168;48.872;9.226;2022-11-20T01:05:43;13.03;;;11.40;;
359;SDS011;168;48.872;9.226;2022-11-20T01:08:11;17.33;;;11.67;;
359;SDS011;168;48.872;9.226;2022-11-20T01:10:40;12.37;;;10.67;;
359;SDS011;168;48.872;9.226;2022-11-20T01:13:08;11.90;;;10.63;;
359;SDS011;168;48.872;9.226;2022-11-20T01:15:52;13.40;;;11.77;;
359;SDS011;168;48.872;9.226;2022-11-20T01:18:20;12.30;;;10.27;;
359;SDS011;168;48.872;9.226;2022-11-20T01:20:48;12.40;;;11.03;;
359;SDS011;168;48.872;9.226;2022-11-20T01:23:15;12.40;;;11.10;;
359;SDS011;168;48.872;9.226;2022-11-20T01:25:44;11.73;;;10.53;;
359;SDS011;168;48.872;9.226;2022-11-20T01:28:11;14.50;;;12.37;;
359;SDS011;168;48.872;9.226;2022-11-20T01:30:39;14.60;;;12.30;;
359;SDS011;168;48.872;9.226;2022-11-20T01:33:06;15.00;;;12.33;;
359;SDS011;168;48.872;9.226;2022-11-20T01:35:33;17.43;;;13.30;;
359;SDS011;168;48.872;9.226;2022-11-20T01:38:01;12.97;;;11.40;;
359;SDS011;168;48.872;9.226;2022-11-20T01:40:28;16.90;;;13.67;;
359;SDS011;168;48.872;9.226;2022-11-20T01:43:00;17.20;;;14.17;;
359;SDS011;168;48.872;9.226;2022-11-20T01:45:56;16.80;;;14.00;;
359;SDS011;168;48.872;9.226;2022-11-20T01:48:31;19.20;;;14.73;;
359;SDS011;168;48.872;9.226;2022-11-20T01:51:03;20.10;;;15.80;;
359;SDS011;168;48.872;9.226;2022-11-20T01:53:34;40.30;;;18.83;;
359;SDS011;168;48.872;9.226;2022-11-20T01:56:05;22.17;;;16.43;;
359;SDS011;168;48.872;9.226;2022-11-20T01:58:38;20.90;;;15.70;;
359;SDS011;168;48.872;9.226;2022-11-20T02:01:10;18.30;;;14.20;;
359;SDS011;168;48.872;9.226;2022-11-20T02:03:39;18.43;;;14.77;;
359;SDS011;168;48.872;9.226;2022-11-20T02:06:08;16.53;;;13.60;;
359;SDS011;168;48.872;9.226;2022-11-20T02:08:39;18.03;;;13.97;;
359;SDS011;168;48.872;9.226;2022-11-20T02:11:06;17.60;;;14.23;;
359;SDS011;168;48.872;9.226;2022-11-20T02:13:34;17.30;;;14.47;;
359;SDS011;168;48.872;9.226;2022-11-20T02:16:21;16.20;;;13.20;;
359;SDS011;168;48.872;9.226;2022-11-20T02:18:52;15.97;;;11.53;;
359;SDS011;168;48.872;9.226;2022-11-20T02:21:24;16.10;;;13.83;;
359;SDS011;168;48.872;9.226;2022-11-20T02:24:00;17.97;;;13.40;;
359;SDS011;168;48.872;9.226;2022-11-20T02:26:31;16.13;;;13.00;;
359;SDS011;168;48.872;9.226;2022-11-20T02:29:01;20.07;;;13.47;;
359;SDS011;168;48.872;9.226;2022-11-20T02:31:33;15.20;;;12.37;;
359;SDS011;168;48.872;9.226;2022-11-20T02:34:04;13.67;;;11.03;;
359;SDS011;168;48.872;9.226;2022-11-20T02:36:32;14.93;;;11.77;;
359;SDS011;168;48.872;9.226;2022-11-20T02:39:03;14.53;;;12.20;;
359;SDS011;168;48.872;9.226;2022-11-20T02:41:31;13.33;;;11.13;;
359;SDS011;168;48.872;9.226;2022-11-20T02:44:00;12.53;;;11.10;;
359;SDS011;168;48.872;9.226;2022-11-20T02:46:28;14.87;;;12.07;;
359;SDS011;168;48.872;9.226;2022-11-20T02:48:55;14.60;;;11.57;;
359;SDS011;168;48.872;9.226;2022-11-20T02:51:23;12.83;;;10.63;;
359;SDS011;168;48.872;9.226;2022-11-20T02:53:51;12.40;;;9.33;;
359;SDS011;168;48.872;9.226;2022-11-20T02:56:19;12.20;;;10.13;;
359;SDS011;168;48.872;9.226;2022-11-20T02:58:47;12.30;;;9.40;;
359;SDS011;168;48.872;9.226;2022-11-20T03:01:14;9.90;;;8.47;;
359;SDS011;168;48.872;9.226;2022-11-20T03:03:42;10.00;;;8.93;;
359;SDS011;168;48.872;9.226;2022-11-20T03:06:09;7.60;;;6.90;;
359;SDS011;168;48.872;9.226;2022-11-20T03:08:37;7.40;;;6.70;;
359;SDS011;168;48.872;9.226;2022-11-20T03:11:05;6.33;;;5.27;;
359;SDS011;168;48.872;9.226;2022-11-20T03:13:37;5.63;;;5.13;;
359;SDS011;168;48.872;9.226;2022-11-20T03:16:05;6.20;;;4.70;;
359;SDS011;168;48.872;9.226;2022-11-20T03:18:38;4.70;;;4.30;;
359;SDS011;168;48.872;9.226;2022-11-20T03:21:06;5.57;;;4.27;;
359;SDS011;168;48.872;9.226;2022-11-20T03:23:33;4.80;;;3.90;;
359;SDS011;168;48.872;9.226;2022-11-20T03:26:08;4.37;;;4.07;;
359;SDS011;168;48.872;9.226;2022-11-20T03:28:38;4.07;;;3.70;;
359;SDS011;168;48.872;9.226;2022-11-20T03:31:07;4.10;;;3.80;;
359;SDS011;168;48.872;9.226;2022-11-20T03:33:35;4.03;;;3.73;;
359;SDS011;168;48.872;9.226;2022-11-20T03:36:03;4.33;;;3.93;;
359;SDS011;168;48.872;9.226;2022-11-20T03:38:31;3.70;;;3.40;;
359;SDS011;168;48.872;9.226;2022-11-20T03:41:00;4.33;;;3.53;;
359;SDS011;168;48.872;9.226;2022-11-20T03:43:27;3.90;;;3.60;;
359;SDS011;168;48.872;9.226;2022-11-20T03:45:56;3.70;;;3.40;;
359;SDS011;168;48.872;9.226;2022-11-20T03:48:24;4.30;;;3.90;;
359;SDS011;168;48.872;9.226;2022-11-20T03:50:52;4.43;;;3.87;;
359;SDS011;168;48.872;9.226;2022-11-20T03:53:33;4.07;;;3.73;;
359;SDS011;168;48.872;9.226;2022-11-20T03:56:00;3.93;;;3.63;;
359;SDS011;168;48.872;9.226;2022-11-20T03:58:28;4.20;;;3.90;;
359;SDS011;168;48.872;9.226;2022-11-20T04:00:57;3.97;;;3.67;;
359;SDS011;168;48.872;9.226;2022-11-20T04:03:24;4.17;;;3.77;;
359;SDS011;168;48.872;9.226;2022-11-20T04:05:52;4.37;;;3.97;;
359;SDS011;168;48.872;9.226;2022-11-20T04:08:20;4.07;;;3.77;;
359;SDS011;168;48.872;9.226;2022-11-20T04:10:47;4.43;;;4.03;;
359;SDS011;168;48.872;9.226;2022-11-20T04:13:16;4.70;;;4.30;;
359;SDS011;168;48.872;9.226;2022-11-20T04:15:43;3.60;;;3.40;;
359;SDS011;168;48.872;9.226;2022-11-20T04:18:12;4.67;;;4.33;;
359;SDS011;168;48.872;9.226;2022-11-20T04:20:39;3.90;;;3.60;;
359;SDS011;168;48.872;9.226;2022-11-20T04:23:07;4.50;;;4.10;;
359;SDS011;168;48.872;9.226;2022-11-20T04:25:34;5.33;;;4.87;;
359;SDS011;168;48.872;9.226;2022-11-20T04:28:02;4.57;;;4.17;;
359;SDS011;168;48.872;9.226;2022-11-20T04:30:30;4.27;;;3.87;;
359;SDS011;168;48.872;9.226;2022-11-20T04:33:04;4.80;;;4.40;;
359;SDS011;168;48.872;9.226;2022-11-20T04:35:34;5.10;;;4.70;;
359;SDS011;168;48.872;9.226;2022-11-20T04:38:02;4.83;;;4.50;;
359;SDS011;168;48.872;9.226;2022-11-20T04:40:30;5.27;;;4.77;;
359;SDS011;168;48.872;9.226;2022-11-20T04:42:57;4.77;;;4.43;;
359;SDS011;168;48.872;9.226;2022-11-20T04:45:25;5.20;;;4.80;;
359;SDS011;168;48.872;9.226;2022-11-20T04:47:52;5.63;;;5.10;;
359;SDS011;168;48.872;9.226;2022-11-20T04:50:20;4.73;;;4.33;;
359;SDS011;168;48.872;9.226;2022-11-20T04:52:49;4.60;;;4.30;;
359;SDS011;168;48.872;9.226;2022-11-20T04:55:16;4.63;;;4.23;;
359;SDS011;168;48.872;9.226;2022-11-20T04:57:43;4.50;;;4.10;;
359;SDS011;168;48.872;9.226;2022-11-20T05:00:11;4.63;;;4.33;;
359;SDS011;168;48.872;9.226;2022-11-20T05:02:40;5.00;;;4.60;;
359;SDS011;168;48.872;9.226;2022-11-20T05:05:07;4.97;;;4.30;;
359;SDS011;168;48.872;9.226;2022-11-20T05:07:35;4.90;;;4.50;;
359;SDS011;168;48.872;9.226;2022-11-20T05:10:04;5.10;;;4.40;;
359;SDS011;168;48.872;9.226;2022-11-20T05:12:33;5.47;;;4.97;;
359;SDS011;168;48.872;9.226;2022-11-20T05:15:00;4.60;;;4.20;;
359;SDS011;168;48.872;9.226;2022-11-20T05:17:28;5.03;;;4.63;;
359;SDS011;168;48.872;9.226;2022-11-20T05:20:04;4.57;;;4.17;;
359;SDS011;168;48.872;9.226;2022-11-20T05:22:32;4.60;;;4.20;;
359;SDS011;168;48.872;9.226;2022-11-20T05:24:59;4.87;;;4.37;;
359;SDS011;168;48.872;9.226;2022-11-20T05:27:31;4.63;;;4.30;;
359;SDS011;168;48.872;9.226;2022-11-20T05:29:59;4.50;;;4.10;;
359;SDS011;168;48.872;9.226;2022-11-20T05:32:26;5.13;;;4.67;;
359;SDS011;168;48.872;9.226;2022-11-20T05:35:00;4.90;;;4.50;;
359;SDS011;168;48.872;9.226;2022-11-20T05:37:27;5.07;;;4.67;;
359;SDS011;168;48.872;9.226;2022-11-20T05:39:54;5.07;;;4.67;;
359;SDS011;168;48.872;9.226;2022-11-20T05:42:22;4.43;;;4.13;;
359;SDS011;168;48.872;9.226;2022-11-20T05:45:00;4.80;;;4.30;;
359;SDS011;168;48.872;9.226;2022-11-20T05:47:33;5.30;;;4.80;;
359;SDS011;168;48.872;9.226;2022-11-20T05:50:01;5.77;;;5.20;;
359;SDS011;168;48.872;9.226;2022-11-20T05:52:29;5.30;;;4.37;;
359;SDS011;168;48.872;9.226;2022-11-20T05:54:56;4.83;;;4.37;;
359;SDS011;168;48.872;9.226;2022-11-20T05:57:28;4.27;;;3.97;;
359;SDS011;168;48.872;9.226;2022-11-20T05:59:59;5.10;;;4.63;;
359;SDS011;168;48.872;9.226;2022-11-20T06:02:28;4.97;;;4.57;;
359;SDS011;168;48.872;9.226;2022-11-20T06:04:58;4.70;;;4.30;;
359;SDS011;168;48.872;9.226;2022-11-20T06:07:26;5.73;;;4.97;;
359;SDS011;168;48.872;9.226;2022-11-20T06:09:53;5.60;;;4.60;;
359;SDS011;168;48.872;9.226;2022-11-20T06:12:21;5.43;;;5.03;;
359;SDS011;168;48.872;9.226;2022-11-20T06:14:48;4.90;;;4.40;;
359;SDS011;168;48.872;9.226;2022-11-20T06:17:17;4.33;;;4.03;;
359;SDS011;168;48.872;9.226;2022-11-20T06:19:45;4.43;;;4.07;;
359;SDS011;168;48.872;9.226;2022-11-20T06:22:13;4.57;;;4.17;;
359;SDS011;168;48.872;9.226;2022-11-20T06:24:40;4.63;;;4.23;;
359;SDS011;168;48.872;9.226;2022-11-20T06:27:07;4.93;;;4.57;;
359;SDS011;168;48.872;9.226;2022-11-20T06:29:35;4.33;;;4.03;;
359;SDS011;168;48.872;9.226;2022-11-20T06:32:02;4.67;;;4.17;;
359;SDS011;168;48.872;9.226;2022-11-20T06:34:32;6.17;;;5.57;;
359;SDS011;168;48.872;9.226;2022-11-20T06:36:59;4.00;;;3.70;;
359;SDS011;168;48.872;9.226;2022-11-20T06:39:26;4.80;;;4.40;;
359;SDS011;168;48.872;9.226;2022-11-20T06:41:54;4.20;;;3.80;;
359;SDS011;168;48.872;9.226;2022-11-20T06:44:21;4.27;;;3.90;;
359;SDS011;168;48.872;9.226;2022-11-20T06:46:49;4.10;;;3.70;;
359;SDS011;168;48.872;9.226;2022-11-20T06:49:16;4.00;;;3.67;;
359;SDS011;168;48.872;9.226;2022-11-20T06:51:45;4.03;;;3.73;;
359;SDS011;168;48.872;9.226;2022-11-20T06:54:12;3.23;;;3.00;;
359;SDS011;168;48.872;9.226;2022-11-20T06:56:40;4.30;;;4.00;;
359;SDS011;168;48.872;9.226;2022-11-20T06:59:08;4.43;;;3.87;;
359;SDS011;168;48.872;9.226;2022-11-20T07:01:35;4.33;;;4.03;;
359;SDS011;168;48.872;9.226;2022-11-20T07:04:03;4.23;;;3.93;;
359;SDS011;168;48.872;9.226;2022-11-20T07:06:30;4.07;;;3.67;;
359;SDS011;168;48.872;9.226;2022-11-20T07:08:59;3.97;;;3.67;;
359;SDS011;168;48.872;9.226;2022-11-20T07:11:27;3.73;;;3.43;;
359;SDS011;168;48.872;9.226;2022-11-20T07:13:54;4.40;;;3.40;;
359;SDS011;168;48.872;9.226;2022-11-20T07:16:23;3.77;;;3.47;;
359;SDS011;168;48.872;9.226;2022-11-20T07:18:51;18.67;;;10.40;;
359;SDS011;168;48.872;9.226;2022-11-20T07:21:18;11.80;;;6.30;;
359;SDS011;168;48.872;9.226;2022-11-20T07:23:46;7.07;;;6.33;;
359;SDS011;168;48.872;9.226;2022-11-20T07:26:17;5.60;;;5.03;;
359;SDS011;168;48.872;9.226;2022-11-20T07:28:45;10.07;;;8.10;;
359;SDS011;168;48.872;9.226;2022-11-20T07:31:14;15.80;;;10.70;;
359;SDS011;168;48.872;9.226;2022-11-20T07:33:42;9.17;;;6.10;;
359;SDS011;168;48.872;9.226;2022-11-20T07:36:09;3.30;;;3.00;;
359;SDS011;168;48.872;9.226;2022-11-20T07:38:36;4.17;;;3.20;;
359;SDS011;168;48.872;9.226;2022-11-20T07:41:04;6.10;;;3.50;;
359;SDS011;168;48.872;9.226;2022-11-20T07:43:33;3.70;;;3.40;;
359;SDS011;168;48.872;9.226;2022-11-20T07:46:00;4.40;;;2.90;;
359;SDS011;168;48.872;9.226;2022-11-20T07:48:29;4.43;;;2.70;;
359;SDS011;168;48.872;9.226;2022-11-20T07:50:56;3.33;;;2.63;;
359;SDS011;168;48.872;9.226;2022-11-20T07:53:24;2.90;;;2.70;;
359;SDS011;168;48.872;9.226;2022-11-20T07:55:52;3.30;;;3.10;;
359;SDS011;168;48.872;9.226;2022-11-20T07:58:19;3.63;;;2.73;;
359;SDS011;168;48.872;9.226;2022-11-20T08:00:48;2.73;;;2.63;;
359;SDS011;168;48.872;9.226;2022-11-20T08:03:16;2.87;;;2.67;;
359;SDS011;168;48.872;9.226;2022-11-20T08:05:43;3.17;;;2.97;;
359;SDS011;168;48.872;9.226;2022-11-20T08:08:11;2.80;;;2.53;;
359;SDS011;168;48.872;9.226;2022-11-20T08:10:39;4.73;;;3.93;;
359;SDS011;168;48.872;9.226;2022-11-20T08:13:08;3.00;;;2.70;;
359;SDS011;168;48.872;9.226;2022-11-20T08:16:06;2.80;;;2.60;;
359;SDS011;168;48.872;9.226;2022-11-20T08:18:44;3.20;;;3.00;;
359;SDS011;168;48.872;9.226;2022-11-20T08:21:11;2.33;;;2.20;;
359;SDS011;168;48.872;9.226;2022-11-20T08:23:41;2.63;;;2.43;;
359;SDS011;168;48.872;9.226;2022-11-20T08:26:09;2.30;;;2.13;;
359;SDS011;168;48.872;9.226;2022-11-20T08:28:37;2.23;;;2.13;;
359;SDS011;168;48.872;9.226;2022-11-20T08:31:06;2.50;;;2.30;;
359;SDS011;168;48.872;9.226;2022-11-20T08:33:36;2.50;;;2.27;;
359;SDS011;168;48.872;9.226;2022-11-20T08:36:04;1.90;;;1.80;;
359;SDS011;168;48.872;9.226;2022-11-20T08:38:32;2.10;;;2.00;;
359;SDS011;168;48.872;9.226;2022-11-20T08:41:00;2.07;;;1.97;;
359;SDS011;168;48.872;9.226;2022-11-20T08:43:46;2.07;;;1.87;;
359;SDS011;168;48.872;9.226;2022-11-20T08:46:18;2.73;;;2.10;;
359;SDS011;168;48.872;9.226;2022-11-20T08:48:49;1.90;;;1.80;;
359;SDS011;168;48.872;9.226;2022-11-20T08:51:17;2.43;;;2.23;;
359;SDS011;168;48.872;9.226;2022-11-20T08:53:46;1.90;;;1.80;;
359;SDS011;168;48.872;9.226;2022-11-20T08:56:16;1.67;;;1.57;;
359;SDS011;168;48.872;9.226;2022-11-20T08:58:45;1.40;;;1.30;;
359;SDS011;168;48.872;9.226;2022-11-20T09:01:12;2.53;;;1.30;;
359;SDS011;168;48.872;9.226;2022-11-20T09:03:42;1.40;;;1.30;;
359;SDS011;168;48.872;9.226;2022-11-20T09:06:09;1.43;;;1.20;;
359;SDS011;168;48.872;9.226;2022-11-20T09:08:37;1.30;;;1.20;;
359;SDS011;168;48.872;9.226;2022-11-20T09:11:05;1.37;;;1.27;;
359;SDS011;168;48.872;9.226;2022-11-20T09:13:33;1.60;;;1.50;;
359;SDS011;168;48.872;9.226;2022-11-20T09:16:03;1.87;;;1.77;;
359;SDS011;168;48.872;9.226;2022-11-20T09:18:33;1.07;;;1.07;;
359;SDS011;168;48.872;9.226;2022-11-20T09:21:05;1.30;;;1.20;;
359;SDS011;168;48.872;9.226;2022-11-20T09:23:34;1.30;;;1.20;;
359;SDS011;168;48.872;9.226;2022-11-20T09:26:02;1.50;;;1.40;;
359;SDS011;168;48.872;9.226;2022-11-20T09:28:30;2.30;;;1.43;;
359;SDS011;168;48.872;9.226;2022-11-20T09:30:59;1.33;;;1.23;;
359;SDS011;168;48.872;9.226;2022-11-20T09:33:26;1.17;;;1.10;;
359;SDS011;168;48.872;9.226;2022-11-20T09:35:54;1.83;;;1.73;;
359;SDS011;168;48.872;9.226;2022-11-20T09:38:23;1.27;;;1.17;;
359;SDS011;168;48.872;9.226;2022-11-20T09:40:55;1.37;;;1.27;;
359;SDS011;168;48.872;9.226;2022-11-20T09:43:27;2.00;;;1.40;;
359;SDS011;168;48.872;9.226;2022-11-20T09:46:07;1.30;;;1.20;;
359;SDS011;168;48.872;9.226;2022-11-20T09:48:58;1.20;;;1.10;;
359;SDS011;168;48.872;9.226;2022-11-20T09:51:44;1.50;;;1.30;;
359;SDS011;168;48.872;9.226;2022-11-20T09:54:22;1.50;;;1.40;;
359;SDS011;168;48.872;9.226;2022-11-20T09:56:55;1.27;;;1.17;;
359;SDS011;168;48.872;9.226;2022-11-20T09:59:29;1.40;;;1.30;;
359;SDS011;168;48.872;9.226;2022-11-20T10:02:00;1.20;;;1.13;;
359;SDS011;168;48.872;9.226;2022-11-20T10:04:33;1.53;;;1.43;;
359;SDS011;168;48.872;9.226;2022-11-20T10:07:04;1.47;;;1.37;;
359;SDS011;168;48.872;9.226;2022-11-20T10:09:49;1.83;;;1.40;;
359;SDS011;168;48.872;9.226;2022-11-20T10:12:21;1.67;;;1.57;;
359;SDS011;168;48.872;9.226;2022-11-20T10:15:01;1.70;;;1.60;;
359;SDS011;168;48.872;9.226;2022-11-20T10:17:46;1.90;;;1.80;;
359;SDS011;168;48.872;9.226;2022-11-20T10:20:36;1.43;;;1.27;;
359;SDS011;168;48.872;9.226;2022-11-20T10:26:20;2.33;;;1.90;;
359;SDS011;168;48.872;9.226;2022-11-20T10:28:58;2.50;;;2.30;;
359;SDS011;168;48.872;9.226;2022-11-20T10:31:35;2.13;;;2.03;;
359;SDS011;168;48.872;9.226;2022-11-20T10:34:06;2.97;;;2.17;;
359;SDS011;168;48.872;9.226;2022-11-20T10:36:40;2.40;;;1.67;;
359;SDS011;168;48.872;9.226;2022-11-20T10:39:15;1.70;;;1.60;;
359;SDS011;168;48.872;9.226;2022-11-20T10:41:51;1.90;;;1.80;;
359;SDS011;168;48.872;9.226;2022-11-20T10:44:20;2.10;;;2.00;;
359;SDS011;168;48.872;9.226;2022-11-20T10:47:12;2.03;;;1.57;;
359;SDS011;168;48.872;9.226;2022-11-20T10:49:41;1.77;;;1.60;;
359;SDS011;168;48.872;9.226;2022-11-20T10:52:11;1.47;;;1.37;;
359;SDS011;168;48.872;9.226;2022-11-20T10:54:47;1.43;;;1.33;;
359;SDS011;168;48.872;9.226;2022-11-20T10:57:25;1.67;;;1.30;;
359;SDS011;168;48.872;9.226;2022-11-20T11:00:03;1.30;;;1.20;;
359;SDS011;168;48.872;9.226;2022-11-20T11:02:33;1.60;;;1.50;;
359;SDS011;168;48.872;9.226;2022-11-20T11:05:11;1.93;;;1.83;;
359;SDS011;168;48.872;9.226;2022-11-20T11:07:44;2.10;;;1.87;;
359;SDS011;168;48.872;9.226;2022-11-20T11:10:14;2.30;;;2.20;;
359;SDS011;168;48.872;9.226;2022-11-20T11:12:46;3.70;;;3.40;;
359;SDS011;168;48.872;9.226;2022-11-20T11:15:24;3.00;;;2.80;;
359;SDS011;168;48.872;9.226;2022-11-20T11:17:54;3.00;;;2.70;;
359;SDS011;168;48.872;9.226;2022-11-20T11:20:22;2.83;;;2.63;;
359;SDS011;168;48.872;9.226;2022-11-20T11:22:52;2.87;;;2.57;;
359;SDS011;168;48.872;9.226;2022-11-20T11:25:22;2.60;;;2.40;;
359;SDS011;168;48.872;9.226;2022-11-20T11:27:57;3.40;;;3.10;;
359;SDS011;168;48.872;9.226;2022-11-20T11:30:27;3.30;;;2.90;;
359;SDS011;168;48.872;9.226;2022-11-20T11:33:04;2.70;;;2.50;;
359;SDS011;168;48.872;9.226;2022-11-20T11:35:33;2.37;;;2.00;;
359;SDS011;168;48.872;9.226;2022-11-20T11:38:04;2.43;;;2.00;;
359;SDS011;168;48.872;9.226;2022-11-20T11:40:34;2.40;;;2.20;;
359;SDS011;168;48.872;9.226;2022-11-20T11:43:06;2.60;;;2.50;;
359;SDS011;168;48.872;9.226;2022-11-20T11:46:05;4.33;;;3.93;;
359;SDS011;168;48.872;9.226;2022-11-20T11:48:54;2.73;;;2.53;;
359;SDS011;168;48.872;9.226;2022-11-20T11:51:23;2.90;;;2.70;;
359;SDS011;168;48.872;9.226;2022-11-20T11:53:54;4.03;;;3.03;;
359;SDS011;168;48.872;9.226;2022-11-20T11:56:25;2.90;;;2.40;;
359;SDS011;168;48.872;9.226;2022-11-20T11:58:55;4.23;;;2.20;;
359;SDS011;168;48.872;9.226;2022-11-20T12:01:28;2.53;;;2.33;;
359;SDS011;168;48.872;9.226;2022-11-20T12:04:02;5.23;;;2.70;;
359;SDS011;168;48.872;9.226;2022-11-20T12:06:36;4.00;;;2.23;;
359;SDS011;168;48.872;9.226;2022-11-20T12:09:08;3.43;;;1.97;;
359;SDS011;168;48.872;9.226;2022-11-20T12:11:38;2.17;;;1.90;;
359;SDS011;168;48.872;9.226;2022-11-20T12:14:14;2.33;;;1.70;;
359;SDS011;168;48.872;9.226;2022-11-20T12:16:45;5.00;;;3.00;;
359;SDS011;168;48.872;9.226;2022-11-20T12:19:13;1.80;;;1.70;;
359;SDS011;168;48.872;9.226;2022-11-20T12:21:44;2.03;;;1.57;;
359;SDS011;168;48.872;9.226;2022-11-20T12:24:25;2.03;;;1.70;;
359;SDS011;168;48.872;9.226;2022-11-20T12:27:04;1.67;;;1.57;;
359;SDS011;168;48.872;9.226;2022-11-20T12:29:51;1.73;;;1.40;;
359;SDS011;168;48.872;9.226;2022-11-20T12:32:31;3.60;;;1.50;;
359;SDS011;168;48.872;9.226;2022-11-20T12:35:27;2.50;;;1.53;;
359;SDS011;168;48.872;9.226;2022-11-20T12:41:26;1.50;;;1.40;;
359;SDS011;168;48.872;9.226;2022-11-20T12:44:29;1.60;;;1.50;;
359;SDS011;168;48.872;9.226;2022-11-20T12:47:42;1.47;;;1.10;;
359;SDS011;168;48.872;9.226;2022-11-20T12:50:34;1.63;;;1.50;;
359;SDS011;168;48.872;9.226;2022-11-20T12:53:11;2.50;;;1.43;;
359;SDS011;168;48.872;9.226;2022-11-20T12:55:50;1.37;;;1.20;;
359;SDS011;168;48.872;9.226;2022-11-20T12:58:24;1.57;;;1.47;;
359;SDS011;168;48.872;9.226;2022-11-20T13:00:59;1.40;;;1.30;;
359;SDS011;168;48.872;9.226;2022-11-20T13:03:36;1.80;;;1.20;;
359;SDS011;168;48.872;9.226;2022-11-20T13:06:13;2.20;;;1.40;;
359;SDS011;168;48.872;9.226;2022-11-20T13:08:43;1.57;;;1.47;;
359;SDS011;168;48.872;9.226;2022-11-20T13:11:17;2.30;;;2.10;;
359;SDS011;168;48.872;9.226;2022-11-20T13:14:02;1.40;;;1.30;;
359;SDS011;168;48.872;9.226;2022-11-20T13:16:38;1.67;;;1.33;;
359;SDS011;168;48.872;9.226;2022-11-20T13:19:15;1.60;;;1.33;;
359;SDS011;168;48.872;9.226;2022-11-20T13:21:44;1.30;;;1.20;;
359;SDS011;168;48.872;9.226;2022-11-20T13:24:21;2.20;;;1.23;;
359;SDS011;168;48.872;9.226;2022-11-20T13:30:02;1.80;;;1.70;;
359;SDS011;168;48.872;9.226;2022-11-20T13:32:47;1.40;;;1.30;;
359;SDS011;168;48.872;9.226;2022-11-20T13:35:28;1.60;;;1.50;;
359;SDS011;168;48.872;9.226;2022-11-20T13:38:04;1.73;;;1.10;;
359;SDS011;168;48.872;9.226;2022-11-20T13:40:34;1.53;;;1.20;;
359;SDS011;168;48.872;9.226;2022-11-20T13:43:18;2.10;;;1.63;;
359;SDS011;168;48.872;9.226;2022-11-20T13:45:56;3.17;;;1.33;;
359;SDS011;168;48.872;9.226;2022-11-20T13:48:26;1.50;;;1.40;;
359;SDS011;168;48.872;9.226;2022-11-20T13:51:02;2.27;;;1.50;;
359;SDS011;168;48.872;9.226;2022-11-20T13:53:54;1.37;;;1.20;;
359;SDS011;168;48.872;9.226;2022-11-20T13:56:43;1.90;;;1.00;;
359;SDS011;168;48.872;9.226;2022-11-20T13:59:26;1.67;;;1.30;;
359;SDS011;168;48.872;9.226;2022-11-20T14:02:05;5.77;;;1.40;;
359;SDS011;168;48.872;9.226;2022-11-20T14:04:39;4.57;;;1.40;;
359;SDS011;168;48.872;9.226;2022-11-20T14:07:11;1.47;;;1.37;;
359;SDS011;168;48.872;9.226;2022-11-20T14:09:48;1.40;;;1.30;;
359;SDS011;168;48.872;9.226;2022-11-20T14:12:18;1.53;;;1.30;;
359;SDS011;168;48.872;9.226;2022-11-20T14:14:48;2.60;;;1.27;;
359;SDS011;168;48.872;9.226;2022-11-20T14:17:17;2.20;;;1.40;;
359;SDS011;168;48.872;9.226;2022-11-20T14:19:48;1.33;;;1.23;;
359;SDS011;168;48.872;9.226;2022-11-20T14:22:20;1.17;;;1.00;;
359;SDS011;168;48.872;9.226;2022-11-20T14:25:01;3.53;;;1.43;;
359;SDS011;168;48.872;9.226;2022-11-20T14:27:32;1.30;;;1.20;;
359;SDS011;168;48.872;9.226;2022-11-20T14:30:03;1.30;;;1.20;;
359;SDS011;168;48.872;9.226;2022-11-20T14:32:32;1.33;;;1.23;;
359;SDS011;168;48.872;9.226;2022-11-20T14:35:13;1.50;;;1.40;;
359;SDS011;168;48.872;9.226;2022-11-20T14:37:47;1.50;;;1.30;;
359;SDS011;168;48.872;9.226;2022-11-20T14:40:22;1.63;;;1.50;;
359;SDS011;168;48.872;9.226;2022-11-20T14:42:51;1.40;;;1.30;;
359;SDS011;168;48.872;9.226;2022-11-20T14:45:19;1.50;;;1.40;;
359;SDS011;168;48.872;9.226;2022-11-20T14:47:51;1.20;;;1.10;;
359;SDS011;168;48.872;9.226;2022-11-20T14:50:23;1.27;;;1.20;;
359;SDS011;168;48.872;9.226;2022-11-20T14:52:54;1.73;;;1.30;;
359;SDS011;168;48.872;9.226;2022-11-20T14:55:26;1.70;;;1.20;;
359;SDS011;168;48.872;9.226;2022-11-20T14:57:55;1.83;;;1.70;;
359;SDS011;168;48.872;9.226;2022-11-20T15:00:24;2.23;;;1.40;;
359;SDS011;168;48.872;9.226;2022-11-20T15:02:52;1.90;;;1.40;;
359;SDS011;168;48.872;9.226;2022-11-20T15:05:20;2.70;;;1.20;;
359;SDS011;168;48.872;9.226;2022-11-20T15:07:50;1.80;;;1.60;;
359;SDS011;168;48.872;9.226;2022-11-20T15:10:21;4.43;;;1.40;;
359;SDS011;168;48.872;9.226;2022-11-20T15:12:51;1.87;;;1.40;;
359;SDS011;168;48.872;9.226;2022-11-20T15:15:21;2.97;;;1.30;;
359;SDS011;168;48.872;9.226;2022-11-20T15:17:52;2.00;;;1.90;;
359;SDS011;168;48.872;9.226;2022-11-20T15:20:20;1.73;;;1.63;;
359;SDS011;168;48.872;9.226;2022-11-20T15:22:52;2.10;;;1.90;;
359;SDS011;168;48.872;9.226;2022-11-20T15:25:21;1.70;;;1.60;;
359;SDS011;168;48.872;9.226;2022-11-20T15:27:50;1.80;;;1.53;;
359;SDS011;168;48.872;9.226;2022-11-20T15:30:21;1.70;;;1.60;;
359;SDS011;168;48.872;9.226;2022-11-20T15:32:49;1.57;;;1.47;;
359;SDS011;168;48.872;9.226;2022-11-20T15:35:16;1.70;;;1.60;;
359;SDS011;168;48.872;9.226;2022-11-20T15:37:44;5.47;;;2.27;;
359;SDS011;168;48.872;9.226;2022-11-20T15:40:11;2.60;;;2.00;;
359;SDS011;168;48.872;9.226;2022-11-20T15:42:40;2.13;;;2.03;;
359;SDS011;168;48.872;9.226;2022-11-20T15:45:28;1.87;;;1.77;;
359;SDS011;168;48.872;9.226;2022-11-20T15:47:59;2.30;;;2.10;;
359;SDS011;168;48.872;9.226;2022-11-20T15:50:30;3.10;;;2.67;;
359;SDS011;168;48.872;9.226;2022-11-20T15:53:02;3.37;;;2.20;;
359;SDS011;168;48.872;9.226;2022-11-20T15:55:30;2.30;;;1.93;;
359;SDS011;168;48.872;9.226;2022-11-20T15:58:02;2.10;;;2.00;;
359;SDS011;168;48.872;9.226;2022-11-20T16:00:29;2.30;;;2.20;;
359;SDS011;168;48.872;9.226;2022-11-20T16:02:59;2.50;;;1.87;;
359;SDS011;168;48.872;9.226;2022-11-20T16:05:27;2.00;;;1.90;;
359;SDS011;168;48.872;9.226;2022-11-20T16:07:55;2.23;;;1.77;;
359;SDS011;168;48.872;9.226;2022-11-20T16:10:23;3.60;;;2.00;;
359;SDS011;168;48.872;9.226;2022-11-20T16:12:50;1.93;;;1.83;;
359;SDS011;168;48.872;9.226;2022-11-20T16:15:36;2.20;;;1.80;;